sensor_id;sensor_type;location;lat;lon;timestamp;temperature;humidity
32694;DHT22;19084;44.716;10.218;2022-10-31T00:00:45;15.20;99.90
32694;DHT22;19084;44.716;10.218;2022-10-31T00:03:18;15.20;99.90
32694;DHT22;19084;44.716;10.218;2022-10-31T00:05:50;15.20;99.90
32694;DHT22;19084;44.716;10.218;2022-10-31T00:08:23;15.20;99.90
32694;DHT22;19084;44.716;10.218;2022-10-31T00:10:56;15.20;99.90
32694;DHT22;19084;44.716;10.218;2022-10-31T00:13:28;15.20;99.90
32694;DHT22;19084;44.716;10.218;2022-10-31T00:16:01;15.10;99.90
32694;DHT22;19084;44.716;10.218;2022-10-31T00:18:34;15.00;99.90
32694;DHT22;19084;44.716;10.218;2022-10-31T00:21:06;15.00;99.90
32694;DHT22;19084;44.716;10.218;2022-10-31T00:23:39;15.10;99.90
32694;DHT22;19084;44.716;10.218;2022-10-31T00:26:11;15.00;99.90
32694;DHT22;19084;44.716;10.218;2022-10-31T00:28:44;15.10;99.90
32694;DHT22;19084;44.716;10.218;2022-10-31T00:31:17;15.10;99.90
32694;DHT22;19084;44.716;10.218;2022-10-31T00:33:50;15.10;99.90
32694;DHT22;19084;44.716;10.218;2022-10-31T00:36:23;15.10;99.90
32694;DHT22;19084;44.716;10.218;2022-10-31T00:38:55;15.10;99.90
32694;DHT22;19084;44.716;10.218;2022-10-31T00:41:30;15.10;99.90
32694;DHT22;19084;44.716;10.218;2022-10-31T00:44:03;15.10;99.90
32694;DHT22;19084;44.716;10.218;2022-10-31T00:46:36;15.10;99.90
32694;DHT22;19084;44.716;10.218;2022-10-31T00:49:08;15.10;99.90
32694;DHT22;19084;44.716;10.218;2022-10-31T00:51:41;15.10;99.90
32694;DHT22;19084;44.716;10.218;2022-10-31T00:54:14;15.20;99.90
32694;DHT22;19084;44.716;10.218;2022-10-31T00:56:46;15.30;99.90
32694;DHT22;19084;44.716;10.218;2022-10-31T00:59:19;15.40;99.90
32694;DHT22;19084;44.716;10.218;2022-10-31T01:01:52;15.50;99.90
32694;DHT22;19084;44.716;10.218;2022-10-31T01:04:26;15.70;99.90
32694;DHT22;19084;44.716;10.218;2022-10-31T01:07:01;15.70;99.90
32694;DHT22;19084;44.716;10.218;2022-10-31T01:09:34;15.80;99.90
32694;DHT22;19084;44.716;10.218;2022-10-31T01:12:07;15.80;99.90
32694;DHT22;19084;44.716;10.218;2022-10-31T01:14:43;15.80;99.90
32694;DHT22;19084;44.716;10.218;2022-10-31T01:17:16;15.80;99.90
32694;DHT22;19084;44.716;10.218;2022-10-31T01:19:51;15.80;99.90
32694;DHT22;19084;44.716;10.218;2022-10-31T01:22:24;15.90;99.90
32694;DHT22;19084;44.716;10.218;2022-10-31T01:24:56;15.90;99.90
32694;DHT22;19084;44.716;10.218;2022-10-31T01:27:31;15.90;99.90
32694;DHT22;19084;44.716;10.218;2022-10-31T01:30:05;15.90;99.90
32694;DHT22;19084;44.716;10.218;2022-10-31T01:32:38;16.00;99.90
32694;DHT22;19084;44.716;10.218;2022-10-31T01:35:10;15.90;99.90
32694;DHT22;19084;44.716;10.218;2022-10-31T01:37:43;16.00;99.90
32694;DHT22;19084;44.716;10.218;2022-10-31T01:40:16;16.00;99.90
32694;DHT22;19084;44.716;10.218;2022-10-31T01:42:48;16.00;99.90
32694;DHT22;19084;44.716;10.218;2022-10-31T01:45:21;16.00;99.90
32694;DHT22;19084;44.716;10.218;2022-10-31T01:47:54;16.00;99.90
32694;DHT22;19084;44.716;10.218;2022-10-31T01:50:32;16.00;99.90
32694;DHT22;19084;44.716;10.218;2022-10-31T01:53:07;16.00;99.90
32694;DHT22;19084;44.716;10.218;2022-10-31T01:55:44;16.10;99.90
32694;DHT22;19084;44.716;10.218;2022-10-31T01:58:24;16.00;99.90
32694;DHT22;19084;44.716;10.218;2022-10-31T02:01:00;16.00;99.90
32694;DHT22;19084;44.716;10.218;2022-10-31T02:03:40;16.00;99.90
32694;DHT22;19084;44.716;10.218;2022-10-31T02:09:08;16.10;99.90
32694;DHT22;19084;44.716;10.218;2022-10-31T02:11:44;16.00;99.90
32694;DHT22;19084;44.716;10.218;2022-10-31T02:14:17;16.00;99.90
32694;DHT22;19084;44.716;10.218;2022-10-31T02:16:51;16.00;99.90
32694;DHT22;19084;44.716;10.218;2022-10-31T02:22:26;16.00;99.90
32694;DHT22;19084;44.716;10.218;2022-10-31T02:25:07;16.00;99.90
32694;DHT22;19084;44.716;10.218;2022-10-31T02:33:23;16.00;99.90
32694;DHT22;19084;44.716;10.218;2022-10-31T02:47:11;15.40;99.90
32694;DHT22;19084;44.716;10.218;2022-10-31T02:49:50;15.30;99.90
32694;DHT22;19084;44.716;10.218;2022-10-31T02:52:28;15.30;99.90
32694;DHT22;19084;44.716;10.218;2022-10-31T02:55:13;15.20;99.90
32694;DHT22;19084;44.716;10.218;2022-10-31T02:58:11;15.10;99.90
32694;DHT22;19084;44.716;10.218;2022-10-31T03:06:45;15.00;99.90
32694;DHT22;19084;44.716;10.218;2022-10-31T03:12:15;14.90;99.90
32694;DHT22;19084;44.716;10.218;2022-10-31T03:15:15;14.90;99.90
32694;DHT22;19084;44.716;10.218;2022-10-31T03:18:03;14.90;99.90
32694;DHT22;19084;44.716;10.218;2022-10-31T03:20:42;14.80;99.90
32694;DHT22;19084;44.716;10.218;2022-10-31T03:23:18;14.80;99.90
32694;DHT22;19084;44.716;10.218;2022-10-31T03:25:54;14.80;99.90
32694;DHT22;19084;44.716;10.218;2022-10-31T03:28:36;14.80;99.90
32694;DHT22;19084;44.716;10.218;2022-10-31T03:31:10;14.70;99.90
32694;DHT22;19084;44.716;10.218;2022-10-31T03:33:46;14.70;99.90
32694;DHT22;19084;44.716;10.218;2022-10-31T03:36:20;14.70;99.90
32694;DHT22;19084;44.716;10.218;2022-10-31T03:38:55;14.70;99.90
32694;DHT22;19084;44.716;10.218;2022-10-31T03:41:36;14.70;99.90
32694;DHT22;19084;44.716;10.218;2022-10-31T03:44:14;14.60;99.90
32694;DHT22;19084;44.716;10.218;2022-10-31T03:46:53;14.60;99.90
32694;DHT22;19084;44.716;10.218;2022-10-31T03:49:27;14.60;99.90
32694;DHT22;19084;44.716;10.218;2022-10-31T03:52:19;14.70;99.90
32694;DHT22;19084;44.716;10.218;2022-10-31T03:54:59;14.60;99.90
32694;DHT22;19084;44.716;10.218;2022-10-31T03:57:41;14.60;99.90
32694;DHT22;19084;44.716;10.218;2022-10-31T04:00:19;14.60;99.90
32694;DHT22;19084;44.716;10.218;2022-10-31T04:03:03;14.60;99.90
32694;DHT22;19084;44.716;10.218;2022-10-31T04:05:41;14.70;99.90
32694;DHT22;19084;44.716;10.218;2022-10-31T04:08:18;14.60;99.90
32694;DHT22;19084;44.716;10.218;2022-10-31T04:10:53;14.70;99.90
32694;DHT22;19084;44.716;10.218;2022-10-31T04:13:27;14.70;99.90
32694;DHT22;19084;44.716;10.218;2022-10-31T04:16:07;14.70;99.90
32694;DHT22;19084;44.716;10.218;2022-10-31T04:18:47;14.70;99.90
32694;DHT22;19084;44.716;10.218;2022-10-31T04:21:27;14.70;99.90
32694;DHT22;19084;44.716;10.218;2022-10-31T04:24:02;14.70;99.90
32694;DHT22;19084;44.716;10.218;2022-10-31T04:26:35;14.70;99.90
32694;DHT22;19084;44.716;10.218;2022-10-31T04:29:07;14.70;99.90
32694;DHT22;19084;44.716;10.218;2022-10-31T04:31:40;14.70;99.90
32694;DHT22;19084;44.716;10.218;2022-10-31T04:34:14;14.80;99.90
32694;DHT22;19084;44.716;10.218;2022-10-31T04:36:47;14.90;99.90
32694;DHT22;19084;44.716;10.218;2022-10-31T04:39:22;14.80;99.90
32694;DHT22;19084;44.716;10.218;2022-10-31T04:42:18;14.80;99.90
32694;DHT22;19084;44.716;10.218;2022-10-31T04:44:50;14.80;99.90
32694;DHT22;19084;44.716;10.218;2022-10-31T04:47:23;14.70;99.90
32694;DHT22;19084;44.716;10.218;2022-10-31T04:49:57;14.70;99.90
32694;DHT22;19084;44.716;10.218;2022-10-31T04:52:30;14.60;99.90
32694;DHT22;19084;44.716;10.218;2022-10-31T04:55:02;14.60;99.90
32694;DHT22;19084;44.716;10.218;2022-10-31T04:57:55;14.50;99.90
32694;DHT22;19084;44.716;10.218;2022-10-31T05:00:29;14.50;99.90
32694;DHT22;19084;44.716;10.218;2022-10-31T05:03:02;14.50;99.90
32694;DHT22;19084;44.716;10.218;2022-10-31T05:05:35;14.60;99.90
32694;DHT22;19084;44.716;10.218;2022-10-31T05:08:08;14.60;99.90
32694;DHT22;19084;44.716;10.218;2022-10-31T05:10:41;14.60;99.90
32694;DHT22;19084;44.716;10.218;2022-10-31T05:13:14;14.60;99.90
32694;DHT22;19084;44.716;10.218;2022-10-31T05:16:07;14.50;99.90
32694;DHT22;19084;44.716;10.218;2022-10-31T05:18:56;14.40;99.90
32694;DHT22;19084;44.716;10.218;2022-10-31T05:21:44;14.40;99.90
32694;DHT22;19084;44.716;10.218;2022-10-31T05:24:17;14.40;99.90
32694;DHT22;19084;44.716;10.218;2022-10-31T05:26:52;14.40;99.90
32694;DHT22;19084;44.716;10.218;2022-10-31T05:29:24;14.40;99.90
32694;DHT22;19084;44.716;10.218;2022-10-31T05:31:57;14.30;99.90
32694;DHT22;19084;44.716;10.218;2022-10-31T05:34:50;14.30;99.90
32694;DHT22;19084;44.716;10.218;2022-10-31T05:37:37;14.20;99.90
32694;DHT22;19084;44.716;10.218;2022-10-31T05:40:12;14.20;99.90
32694;DHT22;19084;44.716;10.218;2022-10-31T05:42:46;14.20;99.90
32694;DHT22;19084;44.716;10.218;2022-10-31T05:45:19;14.10;99.90
32694;DHT22;19084;44.716;10.218;2022-10-31T05:48:01;14.10;99.90
32694;DHT22;19084;44.716;10.218;2022-10-31T05:50:51;14.10;99.90
32694;DHT22;19084;44.716;10.218;2022-10-31T05:53:24;14.10;99.90
32694;DHT22;19084;44.716;10.218;2022-10-31T05:55:57;14.10;99.90
32694;DHT22;19084;44.716;10.218;2022-10-31T05:58:30;14.10;99.90
32694;DHT22;19084;44.716;10.218;2022-10-31T06:01:07;14.10;99.90
32694;DHT22;19084;44.716;10.218;2022-10-31T06:03:40;14.10;99.90
32694;DHT22;19084;44.716;10.218;2022-10-31T06:06:14;14.10;99.90
32694;DHT22;19084;44.716;10.218;2022-10-31T06:08:47;14.10;99.90
32694;DHT22;19084;44.716;10.218;2022-10-31T06:11:24;14.10;99.90
32694;DHT22;19084;44.716;10.218;2022-10-31T06:14:06;14.20;99.90
32694;DHT22;19084;44.716;10.218;2022-10-31T06:31:52;14.70;99.90
32694;DHT22;19084;44.716;10.218;2022-10-31T06:34:24;14.60;99.90
32694;DHT22;19084;44.716;10.218;2022-10-31T06:36:57;14.60;99.90
32694;DHT22;19084;44.716;10.218;2022-10-31T06:39:32;14.60;99.90
32694;DHT22;19084;44.716;10.218;2022-10-31T06:42:05;14.60;99.90
32694;DHT22;19084;44.716;10.218;2022-10-31T06:44:39;14.60;99.90
32694;DHT22;19084;44.716;10.218;2022-10-31T06:47:27;14.60;99.90
32694;DHT22;19084;44.716;10.218;2022-10-31T06:50:06;14.60;99.90
32694;DHT22;19084;44.716;10.218;2022-10-31T06:52:39;14.70;99.90
32694;DHT22;19084;44.716;10.218;2022-10-31T06:55:13;14.80;99.90
32694;DHT22;19084;44.716;10.218;2022-10-31T06:57:50;14.80;99.90
32694;DHT22;19084;44.716;10.218;2022-10-31T07:00:24;14.80;99.90
32694;DHT22;19084;44.716;10.218;2022-10-31T07:03:10;14.80;99.90
32694;DHT22;19084;44.716;10.218;2022-10-31T07:05:44;14.90;99.90
32694;DHT22;19084;44.716;10.218;2022-10-31T07:08:17;14.90;99.90
32694;DHT22;19084;44.716;10.218;2022-10-31T07:10:53;15.00;99.90
32694;DHT22;19084;44.716;10.218;2022-10-31T07:13:27;15.10;99.90
32694;DHT22;19084;44.716;10.218;2022-10-31T07:16:11;15.10;99.90
32694;DHT22;19084;44.716;10.218;2022-10-31T07:18:46;15.30;99.90
32694;DHT22;19084;44.716;10.218;2022-10-31T07:21:19;15.40;99.90
32694;DHT22;19084;44.716;10.218;2022-10-31T07:23:52;15.50;99.90
32694;DHT22;19084;44.716;10.218;2022-10-31T07:26:40;15.60;99.90
32694;DHT22;19084;44.716;10.218;2022-10-31T07:29:15;15.80;99.90
32694;DHT22;19084;44.716;10.218;2022-10-31T07:31:48;15.80;99.90
32694;DHT22;19084;44.716;10.218;2022-10-31T07:34:26;15.90;99.90
32694;DHT22;19084;44.716;10.218;2022-10-31T07:37:19;16.00;99.90
32694;DHT22;19084;44.716;10.218;2022-10-31T07:39:52;16.20;99.90
32694;DHT22;19084;44.716;10.218;2022-10-31T07:42:25;16.30;99.90
32694;DHT22;19084;44.716;10.218;2022-10-31T07:44:58;16.30;99.90
32694;DHT22;19084;44.716;10.218;2022-10-31T07:47:41;16.40;99.90
32694;DHT22;19084;44.716;10.218;2022-10-31T07:50:31;16.50;99.90
32694;DHT22;19084;44.716;10.218;2022-10-31T07:53:21;16.60;99.90
32694;DHT22;19084;44.716;10.218;2022-10-31T07:55:58;16.70;99.90
32694;DHT22;19084;44.716;10.218;2022-10-31T07:58:34;16.70;99.90
32694;DHT22;19084;44.716;10.218;2022-10-31T08:01:07;16.80;99.90
32694;DHT22;19084;44.716;10.218;2022-10-31T08:03:52;16.90;99.90
32694;DHT22;19084;44.716;10.218;2022-10-31T08:06:40;16.90;99.90
32694;DHT22;19084;44.716;10.218;2022-10-31T08:09:28;17.00;99.90
32694;DHT22;19084;44.716;10.218;2022-10-31T08:12:04;17.00;99.90
32694;DHT22;19084;44.716;10.218;2022-10-31T08:14:38;17.00;99.90
32694;DHT22;19084;44.716;10.218;2022-10-31T08:17:12;17.00;99.90
32694;DHT22;19084;44.716;10.218;2022-10-31T08:19:53;17.00;99.90
32694;DHT22;19084;44.716;10.218;2022-10-31T08:22:30;17.00;99.90
32694;DHT22;19084;44.716;10.218;2022-10-31T08:25:06;17.00;99.90
32694;DHT22;19084;44.716;10.218;2022-10-31T08:27:40;17.10;99.90
32694;DHT22;19084;44.716;10.218;2022-10-31T08:30:23;17.20;99.90
32694;DHT22;19084;44.716;10.218;2022-10-31T08:33:18;17.20;99.90
32694;DHT22;19084;44.716;10.218;2022-10-31T08:36:10;17.40;99.90
32694;DHT22;19084;44.716;10.218;2022-10-31T08:38:59;17.40;99.90
32694;DHT22;19084;44.716;10.218;2022-10-31T08:41:34;17.50;99.90
32694;DHT22;19084;44.716;10.218;2022-10-31T08:44:07;17.60;99.90
32694;DHT22;19084;44.716;10.218;2022-10-31T08:46:42;17.60;99.90
32694;DHT22;19084;44.716;10.218;2022-10-31T08:49:14;17.70;99.90
32694;DHT22;19084;44.716;10.218;2022-10-31T08:51:48;17.80;99.90
32694;DHT22;19084;44.716;10.218;2022-10-31T08:54:21;17.90;99.90
32694;DHT22;19084;44.716;10.218;2022-10-31T08:56:56;17.90;99.90
32694;DHT22;19084;44.716;10.218;2022-10-31T08:59:44;18.00;99.90
32694;DHT22;19084;44.716;10.218;2022-10-31T09:02:24;18.00;99.90
32694;DHT22;19084;44.716;10.218;2022-10-31T09:05:02;18.10;99.90
32694;DHT22;19084;44.716;10.218;2022-10-31T09:07:35;18.10;99.90
32694;DHT22;19084;44.716;10.218;2022-10-31T09:10:08;18.10;99.90
32694;DHT22;19084;44.716;10.218;2022-10-31T09:12:43;18.20;99.90
32694;DHT22;19084;44.716;10.218;2022-10-31T09:15:38;18.20;99.90
32694;DHT22;19084;44.716;10.218;2022-10-31T09:18:22;18.30;99.90
32694;DHT22;19084;44.716;10.218;2022-10-31T09:21:03;18.30;99.90
32694;DHT22;19084;44.716;10.218;2022-10-31T09:23:36;18.40;99.90
32694;DHT22;19084;44.716;10.218;2022-10-31T09:26:09;18.40;99.90
32694;DHT22;19084;44.716;10.218;2022-10-31T09:28:46;18.50;99.90
32694;DHT22;19084;44.716;10.218;2022-10-31T09:31:22;18.60;99.90
32694;DHT22;19084;44.716;10.218;2022-10-31T09:34:10;18.60;99.90
32694;DHT22;19084;44.716;10.218;2022-10-31T09:36:49;18.70;99.90
32694;DHT22;19084;44.716;10.218;2022-10-31T09:39:24;18.80;99.90
32694;DHT22;19084;44.716;10.218;2022-10-31T09:51:28;19.10;99.90
32694;DHT22;19084;44.716;10.218;2022-10-31T09:56:47;19.20;99.90
32694;DHT22;19084;44.716;10.218;2022-10-31T09:59:30;19.20;99.90
32694;DHT22;19084;44.716;10.218;2022-10-31T10:04:51;19.40;99.90
32694;DHT22;19084;44.716;10.218;2022-10-31T10:10:56;19.60;99.90
32694;DHT22;19084;44.716;10.218;2022-10-31T10:17:06;19.70;99.90
32694;DHT22;19084;44.716;10.218;2022-10-31T10:19:47;19.80;99.90
32694;DHT22;19084;44.716;10.218;2022-10-31T10:30:43;20.10;99.90
32694;DHT22;19084;44.716;10.218;2022-10-31T10:33:28;20.10;99.90
32694;DHT22;19084;44.716;10.218;2022-10-31T10:36:08;20.10;99.90
32694;DHT22;19084;44.716;10.218;2022-10-31T10:38:58;20.20;99.90
32694;DHT22;19084;44.716;10.218;2022-10-31T10:41:33;20.20;99.90
32694;DHT22;19084;44.716;10.218;2022-10-31T10:44:08;20.30;99.90
32694;DHT22;19084;44.716;10.218;2022-10-31T10:46:51;20.30;99.90
32694;DHT22;19084;44.716;10.218;2022-10-31T10:49:50;20.40;99.90
32694;DHT22;19084;44.716;10.218;2022-10-31T10:55:32;20.50;99.90
32694;DHT22;19084;44.716;10.218;2022-10-31T10:58:10;20.60;99.90
32694;DHT22;19084;44.716;10.218;2022-10-31T11:00:45;20.60;99.90
32694;DHT22;19084;44.716;10.218;2022-10-31T11:03:19;20.60;99.90
32694;DHT22;19084;44.716;10.218;2022-10-31T11:05:53;20.60;99.90
32694;DHT22;19084;44.716;10.218;2022-10-31T11:08:28;20.70;99.90
32694;DHT22;19084;44.716;10.218;2022-10-31T11:11:03;20.80;99.90
32694;DHT22;19084;44.716;10.218;2022-10-31T11:13:40;20.80;99.90
32694;DHT22;19084;44.716;10.218;2022-10-31T11:16:27;20.90;99.90
32694;DHT22;19084;44.716;10.218;2022-10-31T11:19:17;20.90;99.90
32694;DHT22;19084;44.716;10.218;2022-10-31T11:21:51;21.00;99.90
32694;DHT22;19084;44.716;10.218;2022-10-31T11:24:26;21.00;99.90
32694;DHT22;19084;44.716;10.218;2022-10-31T11:27:16;21.00;99.90
32694;DHT22;19084;44.716;10.218;2022-10-31T11:29:50;21.10;99.90
32694;DHT22;19084;44.716;10.218;2022-10-31T11:32:31;21.10;99.90
32694;DHT22;19084;44.716;10.218;2022-10-31T11:35:10;21.20;99.90
32694;DHT22;19084;44.716;10.218;2022-10-31T11:37:45;21.20;99.90
32694;DHT22;19084;44.716;10.218;2022-10-31T11:40:22;21.20;99.90
32694;DHT22;19084;44.716;10.218;2022-10-31T11:42:57;21.30;99.90
32694;DHT22;19084;44.716;10.218;2022-10-31T11:45:31;21.30;99.90
32694;DHT22;19084;44.716;10.218;2022-10-31T11:48:17;21.40;99.90
32694;DHT22;19084;44.716;10.218;2022-10-31T11:50:56;21.40;99.90
32694;DHT22;19084;44.716;10.218;2022-10-31T11:53:33;21.40;99.90
32694;DHT22;19084;44.716;10.218;2022-10-31T11:56:15;21.40;99.90
32694;DHT22;19084;44.716;10.218;2022-10-31T11:59:05;21.40;99.90
32694;DHT22;19084;44.716;10.218;2022-10-31T12:01:39;21.40;99.90
32694;DHT22;19084;44.716;10.218;2022-10-31T12:04:16;21.40;99.90
32694;DHT22;19084;44.716;10.218;2022-10-31T12:06:51;21.40;99.90
32694;DHT22;19084;44.716;10.218;2022-10-31T12:09:26;21.30;99.90
32694;DHT22;19084;44.716;10.218;2022-10-31T12:40:23;21.70;99.90
32694;DHT22;19084;44.716;10.218;2022-10-31T12:48:27;21.80;99.90
32694;DHT22;19084;44.716;10.218;2022-10-31T12:59:52;21.90;99.90
32694;DHT22;19084;44.716;10.218;2022-10-31T13:02:35;21.90;99.90
32694;DHT22;19084;44.716;10.218;2022-10-31T13:05:27;21.80;99.90
32694;DHT22;19084;44.716;10.218;2022-10-31T13:08:08;21.90;99.90
32694;DHT22;19084;44.716;10.218;2022-10-31T13:10:52;21.80;99.90
32694;DHT22;19084;44.716;10.218;2022-10-31T13:16:30;21.90;99.90
32694;DHT22;19084;44.716;10.218;2022-10-31T13:22:08;21.90;99.90
32694;DHT22;19084;44.716;10.218;2022-10-31T13:24:54;22.00;99.90
32694;DHT22;19084;44.716;10.218;2022-10-31T13:30:22;22.00;99.90
32694;DHT22;19084;44.716;10.218;2022-10-31T13:38:46;22.00;99.90
32694;DHT22;19084;44.716;10.218;2022-10-31T13:41:27;21.80;99.90
32694;DHT22;19084;44.716;10.218;2022-10-31T13:46:47;21.70;99.90
32694;DHT22;19084;44.716;10.218;2022-10-31T13:54:48;21.80;99.90
32694;DHT22;19084;44.716;10.218;2022-10-31T13:57:38;21.80;99.90
32694;DHT22;19084;44.716;10.218;2022-10-31T14:03:18;21.70;99.90
32694;DHT22;19084;44.716;10.218;2022-10-31T14:06:12;21.70;99.90
32694;DHT22;19084;44.716;10.218;2022-10-31T14:08:50;21.70;99.90
32694;DHT22;19084;44.716;10.218;2022-10-31T14:11:26;21.70;99.90
32694;DHT22;19084;44.716;10.218;2022-10-31T14:14:11;21.70;99.90
32694;DHT22;19084;44.716;10.218;2022-10-31T14:16:45;21.70;99.90
32694;DHT22;19084;44.716;10.218;2022-10-31T14:19:27;21.60;99.90
32694;DHT22;19084;44.716;10.218;2022-10-31T14:22:00;21.60;99.90
32694;DHT22;19084;44.716;10.218;2022-10-31T14:24:34;21.60;99.90
32694;DHT22;19084;44.716;10.218;2022-10-31T14:29:48;21.50;99.90
32694;DHT22;19084;44.716;10.218;2022-10-31T14:32:24;21.50;99.90
32694;DHT22;19084;44.716;10.218;2022-10-31T14:34:58;21.50;99.90
32694;DHT22;19084;44.716;10.218;2022-10-31T14:46:00;21.30;99.90
32694;DHT22;19084;44.716;10.218;2022-10-31T14:51:39;21.20;99.90
32694;DHT22;19084;44.716;10.218;2022-10-31T14:54:20;21.20;99.90
32694;DHT22;19084;44.716;10.218;2022-10-31T14:57:07;21.20;99.90
32694;DHT22;19084;44.716;10.218;2022-10-31T14:59:46;21.10;99.90
32694;DHT22;19084;44.716;10.218;2022-10-31T15:02:29;21.00;99.90
32694;DHT22;19084;44.716;10.218;2022-10-31T15:05:09;21.00;99.90
32694;DHT22;19084;44.716;10.218;2022-10-31T15:07:52;21.00;99.90
32694;DHT22;19084;44.716;10.218;2022-10-31T15:10:36;21.00;99.90
32694;DHT22;19084;44.716;10.218;2022-10-31T15:13:20;20.90;99.90
32694;DHT22;19084;44.716;10.218;2022-10-31T15:15:55;20.90;99.90
32694;DHT22;19084;44.716;10.218;2022-10-31T15:18:28;20.80;99.90
32694;DHT22;19084;44.716;10.218;2022-10-31T15:21:02;20.80;99.90
32694;DHT22;19084;44.716;10.218;2022-10-31T15:23:42;20.80;99.90
32694;DHT22;19084;44.716;10.218;2022-10-31T15:26:19;20.70;99.90
32694;DHT22;19084;44.716;10.218;2022-10-31T15:31:34;20.70;99.90
32694;DHT22;19084;44.716;10.218;2022-10-31T15:36:57;20.60;99.90
32694;DHT22;19084;44.716;10.218;2022-10-31T15:39:30;20.50;99.90
32694;DHT22;19084;44.716;10.218;2022-10-31T15:42:02;20.50;99.90
32694;DHT22;19084;44.716;10.218;2022-10-31T15:44:36;20.40;99.90
32694;DHT22;19084;44.716;10.218;2022-10-31T15:47:19;20.40;99.90
32694;DHT22;19084;44.716;10.218;2022-10-31T15:49:55;20.30;99.90
32694;DHT22;19084;44.716;10.218;2022-10-31T15:55:18;20.10;99.90
32694;DHT22;19084;44.716;10.218;2022-10-31T15:57:56;20.00;99.90
32694;DHT22;19084;44.716;10.218;2022-10-31T16:00:32;19.90;99.90
32694;DHT22;19084;44.716;10.218;2022-10-31T16:05:52;19.70;99.90
32694;DHT22;19084;44.716;10.218;2022-10-31T16:11:18;19.50;99.90
32694;DHT22;19084;44.716;10.218;2022-10-31T16:14:03;19.40;99.90
32694;DHT22;19084;44.716;10.218;2022-10-31T16:16:48;19.40;99.90
32694;DHT22;19084;44.716;10.218;2022-10-31T16:22:08;19.20;99.90
32694;DHT22;19084;44.716;10.218;2022-10-31T16:24:48;19.10;99.90
32694;DHT22;19084;44.716;10.218;2022-10-31T16:27:26;19.00;99.90
32694;DHT22;19084;44.716;10.218;2022-10-31T16:30:03;18.90;99.90
32694;DHT22;19084;44.716;10.218;2022-10-31T16:32:57;18.90;99.90
32694;DHT22;19084;44.716;10.218;2022-10-31T16:35:34;18.80;99.90
32694;DHT22;19084;44.716;10.218;2022-10-31T16:38:08;18.70;99.90
32694;DHT22;19084;44.716;10.218;2022-10-31T16:40:41;18.70;99.90
32694;DHT22;19084;44.716;10.218;2022-10-31T16:43:17;18.60;99.90
32694;DHT22;19084;44.716;10.218;2022-10-31T16:45:51;18.50;99.90
32694;DHT22;19084;44.716;10.218;2022-10-31T16:48:24;18.50;99.90
32694;DHT22;19084;44.716;10.218;2022-10-31T16:50:56;18.50;99.90
32694;DHT22;19084;44.716;10.218;2022-10-31T16:53:29;18.40;99.90
32694;DHT22;19084;44.716;10.218;2022-10-31T16:56:04;18.30;99.90
32694;DHT22;19084;44.716;10.218;2022-10-31T16:58:37;18.30;99.90
32694;DHT22;19084;44.716;10.218;2022-10-31T17:01:11;18.20;99.90
32694;DHT22;19084;44.716;10.218;2022-10-31T17:03:45;18.10;99.90
32694;DHT22;19084;44.716;10.218;2022-10-31T17:06:18;18.00;99.90
32694;DHT22;19084;44.716;10.218;2022-10-31T17:08:51;17.90;99.90
32694;DHT22;19084;44.716;10.218;2022-10-31T17:11:25;17.90;99.90
32694;DHT22;19084;44.716;10.218;2022-10-31T17:13:59;17.90;99.90
32694;DHT22;19084;44.716;10.218;2022-10-31T17:16:32;17.80;99.90
32694;DHT22;19084;44.716;10.218;2022-10-31T17:19:04;17.80;99.90
32694;DHT22;19084;44.716;10.218;2022-10-31T17:21:37;17.80;99.90
32694;DHT22;19084;44.716;10.218;2022-10-31T17:24:13;17.60;99.90
32694;DHT22;19084;44.716;10.218;2022-10-31T17:26:46;17.60;99.90
32694;DHT22;19084;44.716;10.218;2022-10-31T17:29:18;17.60;99.90
32694;DHT22;19084;44.716;10.218;2022-10-31T17:31:51;17.60;99.90
32694;DHT22;19084;44.716;10.218;2022-10-31T17:34:24;17.50;99.90
32694;DHT22;19084;44.716;10.218;2022-10-31T17:36:57;17.40;99.90
32694;DHT22;19084;44.716;10.218;2022-10-31T17:39:30;17.40;99.90
32694;DHT22;19084;44.716;10.218;2022-10-31T17:42:03;17.40;99.90
32694;DHT22;19084;44.716;10.218;2022-10-31T17:44:36;17.40;99.90
32694;DHT22;19084;44.716;10.218;2022-10-31T17:47:08;17.40;99.90
32694;DHT22;19084;44.716;10.218;2022-10-31T17:49:41;17.40;99.90
32694;DHT22;19084;44.716;10.218;2022-10-31T17:52:14;17.40;99.90
32694;DHT22;19084;44.716;10.218;2022-10-31T17:54:47;17.40;99.90
32694;DHT22;19084;44.716;10.218;2022-10-31T17:57:19;17.40;99.90
32694;DHT22;19084;44.716;10.218;2022-10-31T17:59:52;17.40;99.90
32694;DHT22;19084;44.716;10.218;2022-10-31T18:02:25;17.40;99.90
32694;DHT22;19084;44.716;10.218;2022-10-31T18:04:58;17.40;99.90
32694;DHT22;19084;44.716;10.218;2022-10-31T18:07:33;17.40;99.90
32694;DHT22;19084;44.716;10.218;2022-10-31T18:10:07;17.30;99.90
32694;DHT22;19084;44.716;10.218;2022-10-31T18:12:39;17.30;99.90
32694;DHT22;19084;44.716;10.218;2022-10-31T18:15:13;17.20;99.90
32694;DHT22;19084;44.716;10.218;2022-10-31T18:17:46;17.20;99.90
32694;DHT22;19084;44.716;10.218;2022-10-31T18:20:19;17.20;99.90
32694;DHT22;19084;44.716;10.218;2022-10-31T18:22:51;17.20;99.90
32694;DHT22;19084;44.716;10.218;2022-10-31T18:25:24;17.20;99.90
32694;DHT22;19084;44.716;10.218;2022-10-31T18:27:57;17.10;99.90
32694;DHT22;19084;44.716;10.218;2022-10-31T18:30:31;17.10;99.90
32694;DHT22;19084;44.716;10.218;2022-10-31T18:33:04;17.10;99.90
32694;DHT22;19084;44.716;10.218;2022-10-31T18:35:37;17.10;99.90
32694;DHT22;19084;44.716;10.218;2022-10-31T18:38:10;17.00;99.90
32694;DHT22;19084;44.716;10.218;2022-10-31T18:40:43;17.00;99.90
32694;DHT22;19084;44.716;10.218;2022-10-31T18:43:15;17.00;99.90
32694;DHT22;19084;44.716;10.218;2022-10-31T18:45:48;16.90;99.90
32694;DHT22;19084;44.716;10.218;2022-10-31T18:48:29;16.90;99.90
32694;DHT22;19084;44.716;10.218;2022-10-31T18:51:04;17.00;99.90
32694;DHT22;19084;44.716;10.218;2022-10-31T18:53:37;17.00;99.90
32694;DHT22;19084;44.716;10.218;2022-10-31T18:56:10;17.00;99.90
32694;DHT22;19084;44.716;10.218;2022-10-31T18:58:43;17.00;99.90
32694;DHT22;19084;44.716;10.218;2022-10-31T19:01:16;17.00;99.90
32694;DHT22;19084;44.716;10.218;2022-10-31T19:03:53;17.10;99.90
32694;DHT22;19084;44.716;10.218;2022-10-31T19:06:28;17.20;99.90
32694;DHT22;19084;44.716;10.218;2022-10-31T19:09:05;17.30;99.90
32694;DHT22;19084;44.716;10.218;2022-10-31T19:11:40;17.50;99.90
32694;DHT22;19084;44.716;10.218;2022-10-31T19:14:13;17.50;99.90